sensor_id;sensor_type;location;lat;lon;timestamp;P1;durP1;ratioP1;P2;durP2;ratioP2
63193;SDS011;49289;51.670;5.624;2023-08-21T00:01:37;4.30;;;2.00;;
63193;SDS011;49289;51.670;5.624;2023-08-21T00:03:24;3.20;;;1.90;;
63193;SDS011;49289;51.670;5.624;2023-08-21T00:05:12;4.20;;;1.80;;
63193;SDS011;49289;51.670;5.624;2023-08-21T00:07:02;5.20;;;2.10;;
63193;SDS011;49289;51.670;5.624;2023-08-21T00:08:49;5.30;;;2.10;;
63193;SDS011;49289;51.670;5.624;2023-08-21T00:10:36;3.70;;;2.00;;
63193;SDS011;49289;51.670;5.624;2023-08-21T00:12:23;3.90;;;1.80;;
63193;SDS011;49289;51.670;5.624;2023-08-21T00:14:10;5.50;;;2.10;;
63193;SDS011;49289;51.670;5.624;2023-08-21T00:15:57;6.30;;;2.20;;
63193;SDS011;49289;51.670;5.624;2023-08-21T00:17:44;6.60;;;2.40;;
63193;SDS011;49289;51.670;5.624;2023-08-21T00:19:31;3.60;;;1.70;;
63193;SDS011;49289;51.670;5.624;2023-08-21T00:21:19;5.00;;;2.00;;
63193;SDS011;49289;51.670;5.624;2023-08-21T00:23:08;6.30;;;2.40;;
63193;SDS011;49289;51.670;5.624;2023-08-21T00:24:56;4.80;;;2.00;;
63193;SDS011;49289;51.670;5.624;2023-08-21T00:26:44;4.80;;;2.10;;
63193;SDS011;49289;51.670;5.624;2023-08-21T00:28:32;4.80;;;2.10;;
63193;SDS011;49289;51.670;5.624;2023-08-21T00:30:19;4.50;;;2.00;;
63193;SDS011;49289;51.670;5.624;2023-08-21T00:32:06;2.50;;;1.70;;
63193;SDS011;49289;51.670;5.624;2023-08-21T00:33:53;4.10;;;1.90;;
63193;SDS011;49289;51.670;5.624;2023-08-21T00:35:41;4.20;;;2.00;;
63193;SDS011;49289;51.670;5.624;2023-08-21T00:37:28;6.00;;;2.30;;
63193;SDS011;49289;51.670;5.624;2023-08-21T00:39:17;4.40;;;2.00;;
63193;SDS011;49289;51.670;5.624;2023-08-21T00:41:05;2.30;;;2.00;;
63193;SDS011;49289;51.670;5.624;2023-08-21T00:42:53;3.90;;;2.10;;
63193;SDS011;49289;51.670;5.624;2023-08-21T00:44:40;6.40;;;2.30;;
63193;SDS011;49289;51.670;5.624;2023-08-21T00:46:27;6.00;;;2.40;;
63193;SDS011;49289;51.670;5.624;2023-08-21T00:48:14;4.40;;;2.30;;
63193;SDS011;49289;51.670;5.624;2023-08-21T00:50:01;6.70;;;2.50;;
63193;SDS011;49289;51.670;5.624;2023-08-21T00:51:50;10.10;;;2.50;;
63193;SDS011;49289;51.670;5.624;2023-08-21T00:53:37;4.40;;;2.10;;
63193;SDS011;49289;51.670;5.624;2023-08-21T00:55:24;5.80;;;2.20;;
63193;SDS011;49289;51.670;5.624;2023-08-21T00:57:11;6.90;;;2.60;;
63193;SDS011;49289;51.670;5.624;2023-08-21T00:58:58;3.70;;;2.00;;
63193;SDS011;49289;51.670;5.624;2023-08-21T01:00:46;5.20;;;1.90;;
63193;SDS011;49289;51.670;5.624;2023-08-21T01:02:35;2.80;;;2.00;;
63193;SDS011;49289;51.670;5.624;2023-08-21T01:04:23;5.20;;;2.20;;
63193;SDS011;49289;51.670;5.624;2023-08-21T01:06:11;4.00;;;2.10;;
63193;SDS011;49289;51.670;5.624;2023-08-21T01:07:59;5.10;;;2.10;;
63193;SDS011;49289;51.670;5.624;2023-08-21T01:09:49;6.40;;;2.20;;
63193;SDS011;49289;51.670;5.624;2023-08-21T01:11:40;4.90;;;2.00;;
63193;SDS011;49289;51.670;5.624;2023-08-21T01:13:26;4.00;;;2.30;;
63193;SDS011;49289;51.670;5.624;2023-08-21T01:15:18;5.00;;;2.20;;
63193;SDS011;49289;51.670;5.624;2023-08-21T01:17:06;4.50;;;2.20;;
63193;SDS011;49289;51.670;5.624;2023-08-21T01:18:55;4.70;;;2.10;;
63193;SDS011;49289;51.670;5.624;2023-08-21T01:20:43;4.20;;;2.00;;
63193;SDS011;49289;51.670;5.624;2023-08-21T01:22:34;3.90;;;2.00;;
63193;SDS011;49289;51.670;5.624;2023-08-21T01:24:20;7.70;;;2.20;;
63193;SDS011;49289;51.670;5.624;2023-08-21T01:26:08;3.20;;;1.90;;
63193;SDS011;49289;51.670;5.624;2023-08-21T01:27:56;3.50;;;2.00;;
63193;SDS011;49289;51.670;5.624;2023-08-21T01:29:44;3.20;;;2.00;;
63193;SDS011;49289;51.670;5.624;2023-08-21T01:31:33;3.20;;;2.00;;
63193;SDS011;49289;51.670;5.624;2023-08-21T01:33:21;3.70;;;1.90;;
63193;SDS011;49289;51.670;5.624;2023-08-21T01:35:09;4.40;;;2.00;;
63193;SDS011;49289;51.670;5.624;2023-08-21T01:36:57;4.40;;;2.00;;
63193;SDS011;49289;51.670;5.624;2023-08-21T01:38:46;2.40;;;1.70;;
63193;SDS011;49289;51.670;5.624;2023-08-21T01:40:34;5.00;;;2.30;;
63193;SDS011;49289;51.670;5.624;2023-08-21T01:42:21;4.80;;;2.20;;
63193;SDS011;49289;51.670;5.624;2023-08-21T01:44:08;6.20;;;2.10;;
63193;SDS011;49289;51.670;5.624;2023-08-21T01:45:55;7.30;;;2.20;;
63193;SDS011;49289;51.670;5.624;2023-08-21T01:47:43;4.90;;;2.20;;
63193;SDS011;49289;51.670;5.624;2023-08-21T01:49:31;5.60;;;2.20;;
63193;SDS011;49289;51.670;5.624;2023-08-21T01:51:20;5.00;;;2.30;;
63193;SDS011;49289;51.670;5.624;2023-08-21T01:53:07;8.50;;;2.50;;
63193;SDS011;49289;51.670;5.624;2023-08-21T01:54:54;6.40;;;2.50;;
63193;SDS011;49289;51.670;5.624;2023-08-21T01:56:42;5.70;;;2.10;;
63193;SDS011;49289;51.670;5.624;2023-08-21T01:58:31;6.20;;;2.30;;
63193;SDS011;49289;51.670;5.624;2023-08-21T02:00:19;5.00;;;2.30;;
63193;SDS011;49289;51.670;5.624;2023-08-21T02:02:06;4.70;;;2.00;;
63193;SDS011;49289;51.670;5.624;2023-08-21T02:03:53;5.00;;;2.20;;
63193;SDS011;49289;51.670;5.624;2023-08-21T02:05:43;3.50;;;2.00;;
63193;SDS011;49289;51.670;5.624;2023-08-21T02:07:30;4.70;;;2.10;;
63193;SDS011;49289;51.670;5.624;2023-08-21T02:09:18;3.90;;;2.20;;
63193;SDS011;49289;51.670;5.624;2023-08-21T02:11:07;7.50;;;2.60;;
63193;SDS011;49289;51.670;5.624;2023-08-21T02:12:55;3.70;;;2.40;;
63193;SDS011;49289;51.670;5.624;2023-08-21T02:14:43;4.50;;;2.20;;
63193;SDS011;49289;51.670;5.624;2023-08-21T02:16:30;5.00;;;2.10;;
63193;SDS011;49289;51.670;5.624;2023-08-21T02:18:17;6.60;;;2.20;;
63193;SDS011;49289;51.670;5.624;2023-08-21T02:20:04;3.60;;;2.00;;
63193;SDS011;49289;51.670;5.624;2023-08-21T02:21:53;6.60;;;2.10;;
63193;SDS011;49289;51.670;5.624;2023-08-21T02:23:40;6.30;;;2.10;;
63193;SDS011;49289;51.670;5.624;2023-08-21T02:25:27;3.60;;;2.50;;
63193;SDS011;49289;51.670;5.624;2023-08-21T02:27:16;6.20;;;2.50;;
63193;SDS011;49289;51.670;5.624;2023-08-21T02:29:04;6.10;;;2.30;;
63193;SDS011;49289;51.670;5.624;2023-08-21T02:30:53;7.00;;;2.60;;
63193;SDS011;49289;51.670;5.624;2023-08-21T02:32:40;5.80;;;2.40;;
63193;SDS011;49289;51.670;5.624;2023-08-21T02:34:27;6.90;;;2.40;;
63193;SDS011;49289;51.670;5.624;2023-08-21T02:36:14;5.70;;;2.50;;
63193;SDS011;49289;51.670;5.624;2023-08-21T02:38:01;3.60;;;2.40;;
63193;SDS011;49289;51.670;5.624;2023-08-21T02:39:49;4.30;;;2.40;;
63193;SDS011;49289;51.670;5.624;2023-08-21T02:41:38;6.70;;;2.40;;
63193;SDS011;49289;51.670;5.624;2023-08-21T02:43:26;3.00;;;2.20;;
63193;SDS011;49289;51.670;5.624;2023-08-21T02:45:14;4.50;;;2.40;;
63193;SDS011;49289;51.670;5.624;2023-08-21T02:47:03;8.90;;;2.60;;
63193;SDS011;49289;51.670;5.624;2023-08-21T02:48:50;4.40;;;2.40;;
63193;SDS011;49289;51.670;5.624;2023-08-21T02:50:37;5.00;;;2.80;;
63193;SDS011;49289;51.670;5.624;2023-08-21T02:52:24;5.30;;;2.80;;
63193;SDS011;49289;51.670;5.624;2023-08-21T02:54:11;5.20;;;2.50;;
63193;SDS011;49289;51.670;5.624;2023-08-21T02:55:58;5.10;;;2.40;;
63193;SDS011;49289;51.670;5.624;2023-08-21T02:57:45;5.90;;;2.50;;
63193;SDS011;49289;51.670;5.624;2023-08-21T02:59:32;5.40;;;2.70;;
63193;SDS011;49289;51.670;5.624;2023-08-21T03:01:20;4.30;;;2.60;;
63193;SDS011;49289;51.670;5.624;2023-08-21T03:03:09;5.10;;;2.60;;
63193;SDS011;49289;51.670;5.624;2023-08-21T03:04:56;4.90;;;2.60;;
63193;SDS011;49289;51.670;5.624;2023-08-21T03:06:43;6.60;;;2.90;;
63193;SDS011;49289;51.670;5.624;2023-08-21T03:08:30;8.20;;;3.00;;
63193;SDS011;49289;51.670;5.624;2023-08-21T03:10:18;4.60;;;2.80;;
63193;SDS011;49289;51.670;5.624;2023-08-21T03:12:07;7.90;;;2.80;;
63193;SDS011;49289;51.670;5.624;2023-08-21T03:13:55;4.10;;;2.70;;
63193;SDS011;49289;51.670;5.624;2023-08-21T03:15:43;5.10;;;2.80;;
63193;SDS011;49289;51.670;5.624;2023-08-21T03:17:30;4.60;;;2.80;;
63193;SDS011;49289;51.670;5.624;2023-08-21T03:19:17;5.60;;;2.90;;
63193;SDS011;49289;51.670;5.624;2023-08-21T03:21:04;6.80;;;3.00;;
63193;SDS011;49289;51.670;5.624;2023-08-21T03:22:52;5.90;;;2.80;;
63193;SDS011;49289;51.670;5.624;2023-08-21T03:24:40;7.00;;;3.10;;
63193;SDS011;49289;51.670;5.624;2023-08-21T03:26:28;5.70;;;2.80;;
63193;SDS011;49289;51.670;5.624;2023-08-21T03:28:17;6.20;;;2.60;;
63193;SDS011;49289;51.670;5.624;2023-08-21T03:30:05;6.40;;;3.10;;
63193;SDS011;49289;51.670;5.624;2023-08-21T03:31:52;3.90;;;2.90;;
63193;SDS011;49289;51.670;5.624;2023-08-21T03:33:39;4.70;;;2.80;;
63193;SDS011;49289;51.670;5.624;2023-08-21T03:35:26;4.60;;;2.90;;
63193;SDS011;49289;51.670;5.624;2023-08-21T03:37:13;6.20;;;3.00;;
63193;SDS011;49289;51.670;5.624;2023-08-21T03:39:02;5.30;;;3.00;;
63193;SDS011;49289;51.670;5.624;2023-08-21T03:40:50;6.00;;;3.00;;
63193;SDS011;49289;51.670;5.624;2023-08-21T03:42:38;5.50;;;3.00;;
63193;SDS011;49289;51.670;5.624;2023-08-21T03:44:26;8.00;;;3.30;;
63193;SDS011;49289;51.670;5.624;2023-08-21T03:46:13;5.80;;;3.00;;
63193;SDS011;49289;51.670;5.624;2023-08-21T03:48:00;5.40;;;2.60;;
63193;SDS011;49289;51.670;5.624;2023-08-21T03:49:48;5.60;;;2.70;;
63193;SDS011;49289;51.670;5.624;2023-08-21T03:51:35;9.60;;;4.10;;
63193;SDS011;49289;51.670;5.624;2023-08-21T03:53:22;6.20;;;3.10;;
63193;SDS011;49289;51.670;5.624;2023-08-21T03:55:10;6.70;;;3.10;;
63193;SDS011;49289;51.670;5.624;2023-08-21T03:56:58;4.10;;;3.00;;
63193;SDS011;49289;51.670;5.624;2023-08-21T03:58:45;6.70;;;3.60;;
63193;SDS011;49289;51.670;5.624;2023-08-21T04:00:32;3.80;;;3.20;;
63193;SDS011;49289;51.670;5.624;2023-08-21T04:02:19;4.40;;;2.70;;
63193;SDS011;49289;51.670;5.624;2023-08-21T04:04:06;10.30;;;3.60;;
63193;SDS011;49289;51.670;5.624;2023-08-21T04:05:53;7.30;;;3.30;;
63193;SDS011;49289;51.670;5.624;2023-08-21T04:07:40;6.30;;;3.20;;
63193;SDS011;49289;51.670;5.624;2023-08-21T04:09:28;4.80;;;2.70;;
63193;SDS011;49289;51.670;5.624;2023-08-21T04:11:16;6.60;;;3.20;;
63193;SDS011;49289;51.670;5.624;2023-08-21T04:13:05;6.50;;;3.30;;
63193;SDS011;49289;51.670;5.624;2023-08-21T04:14:53;5.10;;;3.10;;
63193;SDS011;49289;51.670;5.624;2023-08-21T04:16:41;6.30;;;3.00;;
63193;SDS011;49289;51.670;5.624;2023-08-21T04:18:28;6.00;;;3.20;;
63193;SDS011;49289;51.670;5.624;2023-08-21T04:20:16;6.30;;;3.70;;
63193;SDS011;49289;51.670;5.624;2023-08-21T04:22:03;3.70;;;2.90;;
63193;SDS011;49289;51.670;5.624;2023-08-21T04:23:50;7.80;;;3.40;;
63193;SDS011;49289;51.670;5.624;2023-08-21T04:25:22;6.10;;;3.60;;
63193;SDS011;49289;51.670;5.624;2023-08-21T04:27:10;5.80;;;3.40;;
63193;SDS011;49289;51.670;5.624;2023-08-21T04:28:59;5.30;;;3.20;;
63193;SDS011;49289;51.670;5.624;2023-08-21T04:30:47;8.40;;;3.80;;
63193;SDS011;49289;51.670;5.624;2023-08-21T04:32:35;5.80;;;3.20;;
63193;SDS011;49289;51.670;5.624;2023-08-21T04:34:22;4.70;;;3.20;;
63193;SDS011;49289;51.670;5.624;2023-08-21T04:36:09;5.20;;;3.30;;
63193;SDS011;49289;51.670;5.624;2023-08-21T04:38:01;5.60;;;3.40;;
63193;SDS011;49289;51.670;5.624;2023-08-21T04:39:49;6.00;;;3.50;;
63193;SDS011;49289;51.670;5.624;2023-08-21T04:41:36;6.50;;;3.60;;
63193;SDS011;49289;51.670;5.624;2023-08-21T04:43:26;6.50;;;3.70;;
63193;SDS011;49289;51.670;5.624;2023-08-21T04:45:14;6.00;;;3.50;;
63193;SDS011;49289;51.670;5.624;2023-08-21T04:47:18;6.50;;;3.70;;
63193;SDS011;49289;51.670;5.624;2023-08-21T04:49:05;7.00;;;3.70;;
63193;SDS011;49289;51.670;5.624;2023-08-21T04:50:53;5.70;;;3.20;;
63193;SDS011;49289;51.670;5.624;2023-08-21T04:52:40;4.80;;;3.30;;
63193;SDS011;49289;51.670;5.624;2023-08-21T04:54:27;8.60;;;3.30;;
63193;SDS011;49289;51.670;5.624;2023-08-21T04:56:14;5.10;;;3.20;;
63193;SDS011;49289;51.670;5.624;2023-08-21T04:58:01;8.30;;;3.60;;
63193;SDS011;49289;51.670;5.624;2023-08-21T04:59:49;8.90;;;4.40;;
63193;SDS011;49289;51.670;5.624;2023-08-21T05:02:36;6.20;;;4.10;;
63193;SDS011;49289;51.670;5.624;2023-08-21T05:04:23;6.10;;;4.10;;
63193;SDS011;49289;51.670;5.624;2023-08-21T05:06:10;6.30;;;4.00;;
63193;SDS011;49289;51.670;5.624;2023-08-21T05:07:57;7.30;;;3.70;;
63193;SDS011;49289;51.670;5.624;2023-08-21T05:09:45;8.50;;;4.20;;
63193;SDS011;49289;51.670;5.624;2023-08-21T05:11:33;9.10;;;4.10;;
63193;SDS011;49289;51.670;5.624;2023-08-21T05:13:21;5.30;;;3.90;;
63193;SDS011;49289;51.670;5.624;2023-08-21T05:15:10;8.20;;;4.00;;
63193;SDS011;49289;51.670;5.624;2023-08-21T05:16:57;9.50;;;4.40;;
63193;SDS011;49289;51.670;5.624;2023-08-21T05:18:44;7.30;;;3.90;;
63193;SDS011;49289;51.670;5.624;2023-08-21T05:20:32;5.90;;;3.70;;
63193;SDS011;49289;51.670;5.624;2023-08-21T05:22:20;11.30;;;4.50;;
63193;SDS011;49289;51.670;5.624;2023-08-21T05:24:07;8.30;;;3.80;;
63193;SDS011;49289;51.670;5.624;2023-08-21T05:25:54;9.40;;;4.30;;
63193;SDS011;49289;51.670;5.624;2023-08-21T05:27:41;8.10;;;4.50;;
63193;SDS011;49289;51.670;5.624;2023-08-21T05:29:28;7.50;;;3.80;;
63193;SDS011;49289;51.670;5.624;2023-08-21T05:31:16;7.40;;;4.30;;
63193;SDS011;49289;51.670;5.624;2023-08-21T05:33:04;7.40;;;4.00;;
63193;SDS011;49289;51.670;5.624;2023-08-21T05:34:53;7.10;;;4.50;;
63193;SDS011;49289;51.670;5.624;2023-08-21T05:36:41;8.70;;;4.20;;
63193;SDS011;49289;51.670;5.624;2023-08-21T05:38:28;8.70;;;4.40;;
63193;SDS011;49289;51.670;5.624;2023-08-21T05:40:15;9.30;;;4.60;;
63193;SDS011;49289;51.670;5.624;2023-08-21T05:42:04;7.70;;;4.40;;
63193;SDS011;49289;51.670;5.624;2023-08-21T05:43:51;8.70;;;4.50;;
63193;SDS011;49289;51.670;5.624;2023-08-21T05:45:38;10.00;;;4.70;;
63193;SDS011;49289;51.670;5.624;2023-08-21T05:47:25;9.90;;;4.80;;
63193;SDS011;49289;51.670;5.624;2023-08-21T05:49:12;8.60;;;4.80;;
63193;SDS011;49289;51.670;5.624;2023-08-21T05:50:59;9.50;;;4.90;;
63193;SDS011;49289;51.670;5.624;2023-08-21T05:52:47;6.90;;;4.40;;
63193;SDS011;49289;51.670;5.624;2023-08-21T05:54:36;8.40;;;4.40;;
63193;SDS011;49289;51.670;5.624;2023-08-21T05:56:24;6.90;;;4.20;;
63193;SDS011;49289;51.670;5.624;2023-08-21T05:58:12;8.00;;;4.50;;
63193;SDS011;49289;51.670;5.624;2023-08-21T05:59:59;7.10;;;4.40;;
63193;SDS011;49289;51.670;5.624;2023-08-21T06:01:46;8.40;;;4.90;;
63193;SDS011;49289;51.670;5.624;2023-08-21T06:03:33;10.40;;;4.70;;
63193;SDS011;49289;51.670;5.624;2023-08-21T06:05:20;8.80;;;4.80;;
63193;SDS011;49289;51.670;5.624;2023-08-21T06:07:09;7.70;;;4.60;;
63193;SDS011;49289;51.670;5.624;2023-08-21T06:08:57;9.50;;;5.00;;
63193;SDS011;49289;51.670;5.624;2023-08-21T06:10:45;8.60;;;4.10;;
63193;SDS011;49289;51.670;5.624;2023-08-21T06:12:37;11.30;;;5.10;;
63193;SDS011;49289;51.670;5.624;2023-08-21T06:14:24;8.50;;;4.80;;
63193;SDS011;49289;51.670;5.624;2023-08-21T06:16:11;8.70;;;4.70;;
63193;SDS011;49289;51.670;5.624;2023-08-21T06:17:58;8.50;;;4.70;;
63193;SDS011;49289;51.670;5.624;2023-08-21T06:19:45;7.30;;;4.90;;
63193;SDS011;49289;51.670;5.624;2023-08-21T06:21:33;8.90;;;4.80;;
63193;SDS011;49289;51.670;5.624;2023-08-21T06:23:21;9.20;;;4.50;;
63193;SDS011;49289;51.670;5.624;2023-08-21T06:25:10;7.80;;;4.60;;
63193;SDS011;49289;51.670;5.624;2023-08-21T06:26:57;9.70;;;4.80;;
63193;SDS011;49289;51.670;5.624;2023-08-21T06:28:44;7.90;;;4.20;;
63193;SDS011;49289;51.670;5.624;2023-08-21T06:30:31;5.80;;;4.20;;
63193;SDS011;49289;51.670;5.624;2023-08-21T06:32:18;6.80;;;4.30;;
63193;SDS011;49289;51.670;5.624;2023-08-21T06:34:05;7.40;;;4.10;;
63193;SDS011;49289;51.670;5.624;2023-08-21T06:35:53;7.30;;;4.00;;
63193;SDS011;49289;51.670;5.624;2023-08-21T06:37:41;7.50;;;4.40;;
63193;SDS011;49289;51.670;5.624;2023-08-21T06:39:31;7.60;;;4.00;;
63193;SDS011;49289;51.670;5.624;2023-08-21T06:41:19;8.30;;;4.40;;
63193;SDS011;49289;51.670;5.624;2023-08-21T06:42:28;10.50;;;4.30;;
63193;SDS011;49289;51.670;5.624;2023-08-21T06:44:16;12.00;;;4.10;;
63193;SDS011;49289;51.670;5.624;2023-08-21T06:46:04;7.70;;;3.60;;
63193;SDS011;49289;51.670;5.624;2023-08-21T06:47:51;6.30;;;3.50;;
63193;SDS011;49289;51.670;5.624;2023-08-21T06:49:38;6.50;;;3.10;;
63193;SDS011;49289;51.670;5.624;2023-08-21T06:51:25;5.70;;;3.10;;
63193;SDS011;49289;51.670;5.624;2023-08-21T06:53:12;6.20;;;3.10;;
63193;SDS011;49289;51.670;5.624;2023-08-21T06:55:00;7.10;;;2.80;;
63193;SDS011;49289;51.670;5.624;2023-08-21T06:56:34;7.00;;;2.90;;
63193;SDS011;49289;51.670;5.624;2023-08-21T06:58:22;4.00;;;2.70;;
63193;SDS011;49289;51.670;5.624;2023-08-21T07:00:10;7.30;;;2.70;;
63193;SDS011;49289;51.670;5.624;2023-08-21T07:01:58;6.60;;;2.70;;
63193;SDS011;49289;51.670;5.624;2023-08-21T07:03:45;5.10;;;2.60;;
63193;SDS011;49289;51.670;5.624;2023-08-21T07:05:33;8.20;;;2.40;;
63193;SDS011;49289;51.670;5.624;2023-08-21T07:07:21;4.90;;;2.50;;
63193;SDS011;49289;51.670;5.624;2023-08-21T07:09:09;5.80;;;2.40;;
63193;SDS011;49289;51.670;5.624;2023-08-21T07:10:58;3.90;;;2.20;;
63193;SDS011;49289;51.670;5.624;2023-08-21T07:12:46;6.10;;;2.50;;
63193;SDS011;49289;51.670;5.624;2023-08-21T07:14:33;7.00;;;2.30;;
63193;SDS011;49289;51.670;5.624;2023-08-21T07:16:20;5.80;;;2.10;;
63193;SDS011;49289;51.670;5.624;2023-08-21T07:18:07;7.10;;;2.30;;
63193;SDS011;49289;51.670;5.624;2023-08-21T07:19:54;4.80;;;1.90;;
63193;SDS011;49289;51.670;5.624;2023-08-21T07:21:43;8.20;;;1.90;;
63193;SDS011;49289;51.670;5.624;2023-08-21T07:23:31;6.70;;;2.10;;
63193;SDS011;49289;51.670;5.624;2023-08-21T07:25:18;4.10;;;2.00;;
63193;SDS011;49289;51.670;5.624;2023-08-21T07:27:05;7.20;;;2.20;;
63193;SDS011;49289;51.670;5.624;2023-08-21T07:28:52;7.30;;;1.90;;
63193;SDS011;49289;51.670;5.624;2023-08-21T07:30:39;5.50;;;1.80;;
63193;SDS011;49289;51.670;5.624;2023-08-21T07:32:27;6.50;;;2.00;;
63193;SDS011;49289;51.670;5.624;2023-08-21T07:34:16;5.80;;;1.70;;
63193;SDS011;49289;51.670;5.624;2023-08-21T07:36:04;5.40;;;1.80;;
63193;SDS011;49289;51.670;5.624;2023-08-21T07:37:51;7.40;;;1.90;;
63193;SDS011;49289;51.670;5.624;2023-08-21T07:39:38;5.00;;;1.90;;
63193;SDS011;49289;51.670;5.624;2023-08-21T07:41:25;8.10;;;1.90;;
63193;SDS011;49289;51.670;5.624;2023-08-21T07:43:13;6.30;;;1.90;;
63193;SDS011;49289;51.670;5.624;2023-08-21T07:45:01;7.60;;;2.10;;
63193;SDS011;49289;51.670;5.624;2023-08-21T07:46:49;5.00;;;1.70;;
63193;SDS011;49289;51.670;5.624;2023-08-21T07:48:36;5.40;;;1.60;;
63193;SDS011;49289;51.670;5.624;2023-08-21T07:50:24;4.70;;;1.50;;
63193;SDS011;49289;51.670;5.624;2023-08-21T07:52:13;6.20;;;1.70;;
63193;SDS011;49289;51.670;5.624;2023-08-21T07:54:00;4.90;;;1.50;;
63193;SDS011;49289;51.670;5.624;2023-08-21T07:55:47;4.80;;;1.40;;
63193;SDS011;49289;51.670;5.624;2023-08-21T07:57:35;5.20;;;1.70;;
63193;SDS011;49289;51.670;5.624;2023-08-21T07:59:23;5.70;;;1.80;;
63193;SDS011;49289;51.670;5.624;2023-08-21T08:01:12;5.00;;;1.70;;
63193;SDS011;49289;51.670;5.624;2023-08-21T08:03:00;6.10;;;1.50;;
63193;SDS011;49289;51.670;5.624;2023-08-21T08:04:47;5.10;;;1.50;;
63193;SDS011;49289;51.670;5.624;2023-08-21T08:06:34;2.90;;;1.50;;
63193;SDS011;49289;51.670;5.624;2023-08-21T08:08:22;4.70;;;1.40;;
63193;SDS011;49289;51.670;5.624;2023-08-21T08:10:09;2.60;;;1.40;;
63193;SDS011;49289;51.670;5.624;2023-08-21T08:11:57;3.70;;;1.70;;
63193;SDS011;49289;51.670;5.624;2023-08-21T08:13:45;4.40;;;1.40;;
63193;SDS011;49289;51.670;5.624;2023-08-21T08:15:34;2.90;;;1.20;;
63193;SDS011;49289;51.670;5.624;2023-08-21T08:17:22;8.90;;;1.50;;
63193;SDS011;49289;51.670;5.624;2023-08-21T08:19:11;3.70;;;1.40;;
63193;SDS011;49289;51.670;5.624;2023-08-21T08:20:59;5.70;;;1.50;;
63193;SDS011;49289;51.670;5.624;2023-08-21T08:22:47;4.30;;;1.50;;
63193;SDS011;49289;51.670;5.624;2023-08-21T08:24:34;4.90;;;1.50;;
63193;SDS011;49289;51.670;5.624;2023-08-21T08:26:21;5.00;;;1.40;;
63193;SDS011;49289;51.670;5.624;2023-08-21T08:28:08;7.20;;;1.60;;
63193;SDS011;49289;51.670;5.624;2023-08-21T08:29:56;3.20;;;1.40;;
63193;SDS011;49289;51.670;5.624;2023-08-21T08:31:46;3.40;;;1.30;;
63193;SDS011;49289;51.670;5.624;2023-08-21T08:33:34;4.30;;;1.30;;
63193;SDS011;49289;51.670;5.624;2023-08-21T08:35:22;3.60;;;2.00;;
63193;SDS011;49289;51.670;5.624;2023-08-21T08:37:09;3.70;;;1.30;;
63193;SDS011;49289;51.670;5.624;2023-08-21T08:38:56;5.70;;;1.40;;
63193;SDS011;49289;51.670;5.624;2023-08-21T08:40:44;4.50;;;1.30;;
63193;SDS011;49289;51.670;5.624;2023-08-21T08:42:30;3.30;;;1.20;;
63193;SDS011;49289;51.670;5.624;2023-08-21T08:44:18;5.10;;;1.40;;
63193;SDS011;49289;51.670;5.624;2023-08-21T08:46:06;7.00;;;1.50;;
63193;SDS011;49289;51.670;5.624;2023-08-21T08:47:55;3.90;;;1.40;;
63193;SDS011;49289;51.670;5.624;2023-08-21T08:49:43;3.50;;;1.30;;
63193;SDS011;49289;51.670;5.624;2023-08-21T08:51:31;2.20;;;1.30;;
63193;SDS011;49289;51.670;5.624;2023-08-21T08:53:18;5.60;;;1.30;;
63193;SDS011;49289;51.670;5.624;2023-08-21T08:55:06;3.30;;;1.40;;
63193;SDS011;49289;51.670;5.624;2023-08-21T08:56:55;7.10;;;1.20;;
63193;SDS011;49289;51.670;5.624;2023-08-21T08:58:43;3.30;;;1.50;;
63193;SDS011;49289;51.670;5.624;2023-08-21T09:00:30;4.50;;;1.30;;
63193;SDS011;49289;51.670;5.624;2023-08-21T09:02:17;3.40;;;1.40;;
63193;SDS011;49289;51.670;5.624;2023-08-21T09:04:04;5.40;;;1.50;;
63193;SDS011;49289;51.670;5.624;2023-08-21T09:05:51;3.60;;;1.10;;
63193;SDS011;49289;51.670;5.624;2023-08-21T09:07:39;5.20;;;1.60;;
63193;SDS011;49289;51.670;5.624;2023-08-21T09:09:28;5.40;;;1.50;;
63193;SDS011;49289;51.670;5.624;2023-08-21T09:11:19;3.10;;;1.30;;
63193;SDS011;49289;51.670;5.624;2023-08-21T09:13:14;3.90;;;1.40;;
63193;SDS011;49289;51.670;5.624;2023-08-21T09:15:01;5.10;;;1.50;;
63193;SDS011;49289;51.670;5.624;2023-08-21T09:17:03;6.40;;;1.50;;
63193;SDS011;49289;51.670;5.624;2023-08-21T09:18:54;4.60;;;1.50;;
63193;SDS011;49289;51.670;5.624;2023-08-21T09:20:40;5.20;;;1.50;;
63193;SDS011;49289;51.670;5.624;2023-08-21T09:22:28;3.60;;;1.30;;
63193;SDS011;49289;51.670;5.624;2023-08-21T09:24:17;3.30;;;1.30;;
63193;SDS011;49289;51.670;5.624;2023-08-21T09:26:05;5.80;;;1.80;;
63193;SDS011;49289;51.670;5.624;2023-08-21T09:27:53;5.70;;;1.50;;
63193;SDS011;49289;51.670;5.624;2023-08-21T09:29:44;4.00;;;1.60;;
63193;SDS011;49289;51.670;5.624;2023-08-21T09:31:35;3.70;;;1.50;;
63193;SDS011;49289;51.670;5.624;2023-08-21T09:33:23;5.10;;;1.60;;
63193;SDS011;49289;51.670;5.624;2023-08-21T09:35:10;4.60;;;1.50;;
63193;SDS011;49289;51.670;5.624;2023-08-21T09:37:00;3.50;;;1.20;;
63193;SDS011;49289;51.670;5.624;2023-08-21T09:38:47;3.70;;;1.50;;
63193;SDS011;49289;51.670;5.624;2023-08-21T09:40:34;4.00;;;1.20;;
63193;SDS011;49289;51.670;5.624;2023-08-21T09:42:24;4.40;;;1.60;;
63193;SDS011;49289;51.670;5.624;2023-08-21T09:44:11;4.80;;;1.60;;
63193;SDS011;49289;51.670;5.624;2023-08-21T09:45:59;5.00;;;1.60;;
63193;SDS011;49289;51.670;5.624;2023-08-21T09:47:53;4.00;;;1.40;;
63193;SDS011;49289;51.670;5.624;2023-08-21T09:49:40;5.60;;;1.60;;
63193;SDS011;49289;51.670;5.624;2023-08-21T09:51:27;4.30;;;1.50;;
63193;SDS011;49289;51.670;5.624;2023-08-21T09:53:15;4.30;;;1.40;;
63193;SDS011;49289;51.670;5.624;2023-08-21T09:55:04;4.20;;;1.50;;
63193;SDS011;49289;51.670;5.624;2023-08-21T09:56:51;4.60;;;1.50;;
63193;SDS011;49289;51.670;5.624;2023-08-21T09:58:38;3.90;;;1.50;;
63193;SDS011;49289;51.670;5.624;2023-08-21T10:00:27;3.80;;;1.50;;
63193;SDS011;49289;51.670;5.624;2023-08-21T10:02:16;6.30;;;1.70;;
63193;SDS011;49289;51.670;5.624;2023-08-21T10:04:04;4.00;;;1.80;;
63193;SDS011;49289;51.670;5.624;2023-08-21T10:05:53;3.80;;;1.20;;
63193;SDS011;49289;51.670;5.624;2023-08-21T10:07:41;4.10;;;1.70;;
63193;SDS011;49289;51.670;5.624;2023-08-21T10:09:28;6.20;;;1.50;;
63193;SDS011;49289;51.670;5.624;2023-08-21T10:11:15;3.10;;;1.30;;
63193;SDS011;49289;51.670;5.624;2023-08-21T10:13:04;3.60;;;1.30;;
63193;SDS011;49289;51.670;5.624;2023-08-21T10:14:51;3.20;;;1.40;;
63193;SDS011;49289;51.670;5.624;2023-08-21T10:16:38;4.80;;;1.50;;
63193;SDS011;49289;51.670;5.624;2023-08-21T10:18:29;4.80;;;1.50;;
63193;SDS011;49289;51.670;5.624;2023-08-21T10:20:20;4.30;;;1.60;;
63193;SDS011;49289;51.670;5.624;2023-08-21T10:22:07;3.80;;;1.50;;
63193;SDS011;49289;51.670;5.624;2023-08-21T10:23:55;3.60;;;1.60;;
63193;SDS011;49289;51.670;5.624;2023-08-21T10:25:45;4.20;;;2.00;;
63193;SDS011;49289;51.670;5.624;2023-08-21T10:27:35;4.40;;;1.70;;
63193;SDS011;49289;51.670;5.624;2023-08-21T10:29:23;6.90;;;1.80;;
63193;SDS011;49289;51.670;5.624;2023-08-21T10:33:13;4.70;;;1.70;;
63193;SDS011;49289;51.670;5.624;2023-08-21T10:35:01;3.90;;;1.80;;
63193;SDS011;49289;51.670;5.624;2023-08-21T10:39:06;5.40;;;1.70;;
63193;SDS011;49289;51.670;5.624;2023-08-21T10:41:11;6.00;;;2.00;;
63193;SDS011;49289;51.670;5.624;2023-08-21T10:42:59;4.00;;;1.70;;
63193;SDS011;49289;51.670;5.624;2023-08-21T10:44:53;3.30;;;1.70;;
63193;SDS011;49289;51.670;5.624;2023-08-21T10:48:41;3.30;;;1.60;;
63193;SDS011;49289;51.670;5.624;2023-08-21T10:50:28;3.00;;;1.30;;
63193;SDS011;49289;51.670;5.624;2023-08-21T10:52:17;2.50;;;1.60;;
63193;SDS011;49289;51.670;5.624;2023-08-21T10:54:16;4.10;;;1.50;;
63193;SDS011;49289;51.670;5.624;2023-08-21T10:56:06;4.30;;;1.40;;
63193;SDS011;49289;51.670;5.624;2023-08-21T10:57:53;3.80;;;1.60;;